Time;durP1;ratioP1;P1;durP2;ratioP2;P2;SDS_P1;SDS_P2;PMS_P1;PMS_P2;Temp;Humidity;BMP_temperature;BMP_pressure;BME280_temperature;BME280_humidity;BME280_pressure;Samples;Min_cycle;Max_cycle;Signal;HPM_P1;HPM_P2
2023/08/25 00:00:40;;;;;;;;;;;;;;;;;;6237758;22;20407;-87
2023/08/25 00:03:06;;;;;;;;;;;;;;;;;;6267634;22;20043;-87
2023/08/25 00:05:34;;;;;;;;;;;;;;;;;;6265798;22;20295;-86
2023/08/25 00:08:03;;;;;;;;;;;;;;;;;;6266363;22;19925;-86
2023/08/25 00:10:34;;;;;;;;;;;;;;;;;;6239998;22;20332;-87
2023/08/25 00:13:00;;;;;;;;;;;;;;;;;;6240424;22;19923;-87
2023/08/25 00:15:29;;;;;;;;;;;;;;;;;;6238872;22;19934;-87
2023/08/25 00:17:55;;;;;;;;;;;;;;;;;;6241361;22;19937;-87
2023/08/25 00:20:21;;;;;;;;;;;;;;;;;;6237774;22;19919;-86
2023/08/25 00:22:47;;;;;;;;;;;;;;;;;;6241221;22;19990;-86
2023/08/25 00:25:13;;;;;;;;;;;;;;;;;;6239589;22;20328;-86
2023/08/25 00:27:39;;;;;;;;;;;;;;;;;;6237413;22;19918;-86
2023/08/25 00:30:10;;;;;;;;;;;;;;;;;;6241640;22;20379;-86
2023/08/25 00:32:39;;;;;;;;;;;;;;;;;;6264198;22;19926;-86
2023/08/25 00:35:13;;;;;;;;;;;;;;;;;;6242244;22;20202;-87
2023/08/25 00:37:39;;;;;;;;;;;;;;;;;;6243523;22;19919;-86
2023/08/25 00:40:06;;;;;;;;;;;;;;;;;;6270082;22;20370;-86
2023/08/25 00:42:31;;;;;;;;;;;;;;;;;;6268140;22;19919;-86
2023/08/25 00:44:57;;;;;;;;;;;;;;;;;;6241950;22;19923;-86
2023/08/25 00:47:24;;;;;;;;;;;;;;;;;;6267538;22;19923;-87
2023/08/25 00:49:58;;;;;;;;;;;;;;;;;;6268854;22;19923;-86
2023/08/25 00:52:24;;;;;;;;;;;;;;;;;;6240007;22;19919;-87
2023/08/25 00:54:52;;;;;;;;;;;;;;;;;;6266574;22;19930;-87
2023/08/25 00:57:21;;;;;;;;;;;;;;;;;;6241029;22;20215;-86
2023/08/25 00:59:47;;;;;;;;;;;;;;;;;;6265740;22;19964;-87
2023/08/25 01:02:13;;;;;;;;;;;;;;;;;;6241744;22;19957;-87
2023/08/25 01:04:39;;;;;;;;;;;;;;;;;;6266984;22;20168;-87
2023/08/25 01:07:08;;;;;;;;;;;;;;;;;;6241636;22;20609;-86
2023/08/25 01:09:36;;;;;;;;;;;;;;;;;;6242110;22;19967;-86
2023/08/25 01:12:11;;;;;;;;;;;;;;;;;;6245079;22;19942;-87
2023/08/25 01:14:37;;;;;;;;;;;;;;;;;;6240476;22;19925;-86
2023/08/25 01:17:06;;;;;;;;;;;;;;;;;;6244748;22;20300;-86
2023/08/25 01:19:32;;;;;;;;;;;;;;;;;;6267712;22;19919;-86
2023/08/25 01:22:05;;;;;;;;;;;;;;;;;;6242957;22;19919;-87
2023/08/25 01:24:34;;;;;;;;;;;;;;;;;;6266146;22;20342;-86
2023/08/25 01:27:00;;;;;;;;;;;;;;;;;;6242538;22;20319;-86
2023/08/25 01:29:28;;;;;;;;;;;;;;;;;;6241873;22;19915;-86
2023/08/25 01:32:00;;;;;;;;;;;;;;;;;;6243808;22;19919;-86
2023/08/25 01:34:33;;;;;;;;;;;;;;;;;;6266337;22;20286;-86
2023/08/25 01:37:03;;;;;;;;;;;;;;;;;;6264436;22;20037;-86
2023/08/25 01:39:29;;;;;;;;;;;;;;;;;;6237685;22;19973;-86
2023/08/25 01:41:58;;;;;;;;;;;;;;;;;;6238702;22;20506;-86
2023/08/25 01:44:27;;;;;;;;;;;;;;;;;;6260639;22;19915;-86
2023/08/25 01:46:54;;;;;;;;;;;;;;;;;;6258904;22;19927;-86
2023/08/25 01:49:23;;;;;;;;;;;;;;;;;;6262695;22;19923;-86
2023/08/25 01:51:49;;;;;;;;;;;;;;;;;;6239000;22;19919;-86
2023/08/25 01:54:24;;;;;;;;;;;;;;;;;;6236267;22;20329;-87
2023/08/25 01:56:50;;;;;;;;;;;;;;;;;;6234282;22;20276;-87
2023/08/25 01:59:16;;;;;;;;;;;;;;;;;;6259651;22;19978;-86
2023/08/25 02:01:42;;;;;;;;;;;;;;;;;;6233271;22;19955;-86
2023/08/25 02:04:29;;;;;;;;;;;;;;;;;;6236197;22;20014;-87
2023/08/25 02:06:55;;;;;;;;;;;;;;;;;;6236345;22;20308;-86
2023/08/25 02:09:23;;;;;;;;;;;;;;;;;;6232950;22;20297;-87
2023/08/25 02:11:52;;;;;;;;;;;;;;;;;;6234861;22;20350;-87
2023/08/25 02:14:21;;;;;;;;;;;;;;;;;;6233379;22;19919;-87
2023/08/25 02:19:23;;;;;;;;;;;;;;;;;;6200079;22;20002;-85
2023/08/25 02:21:52;;;;;;;;;;;;;;;;;;6235534;22;20284;-86
2023/08/25 02:24:21;;;;;;;;;;;;;;;;;;6262759;22;20395;-86
2023/08/25 02:26:56;;;;;;;;;;;;;;;;;;6263155;22;20399;-85
2023/08/25 02:29:25;;;;;;;;;;;;;;;;;;6236699;22;19919;-86
2023/08/25 02:31:51;;;;;;;;;;;;;;;;;;6235636;22;19955;-86
2023/08/25 02:34:45;;;;;;;;;;;;;;;;;;;;;
2023/08/25 02:37:28;;;;;;;;;;;;;;;;;;6274549;22;19997;-86
2023/08/25 02:39:54;;;;;;;;;;;;;;;;;;6238157;22;19919;-86
2023/08/25 02:42:23;;;;;;;;;;;;;;;;;;6236596;22;19915;-86
2023/08/25 02:44:52;;;;;;;;;;;;;;;;;;6239425;22;20280;-86
2023/08/25 02:47:20;;;;;;;;;;;;;;;;;;6237001;22;19994;-86
2023/08/25 02:49:46;;;;;;;;;;;;;;;;;;6262815;22;19919;-86
2023/08/25 02:52:21;;;;;;;;;;;;;;;;;;6238346;22;20666;-85
2023/08/25 03:00:45;;;;;;;;;;;;;;;;;;6274088;22;20005;-85
2023/08/25 03:03:23;;;;;;;;;;;;;;;;;;6241891;22;19919;-86
2023/08/25 03:08:45;;;;;;;;;;;;;;;;;;6300834;22;19925;-84
2023/08/25 03:11:16;;;;;;;;;;;;;;;;;;6241253;22;19919;-85
2023/08/25 03:13:45;;;;;;;;;;;;;;;;;;6238528;22;19923;-85
2023/08/25 03:16:17;;;;;;;;;;;;;;;;;;6240052;22;19926;-85
2023/08/25 03:18:51;;;;;;;;;;;;;;;;;;6261654;22;19995;-85
2023/08/25 03:21:22;;;;;;;;;;;;;;;;;;6238828;22;20032;-85
2023/08/25 03:24:05;;;;;;;;;;;;;;;;;;6241566;22;19918;-84
2023/08/25 03:26:45;;;;;;;;;;;;;;;;;;6293168;22;19969;-84
2023/08/25 03:29:14;;;;;;;;;;;;;;;;;;6264986;22;19957;-84
2023/08/25 03:32:01;;;;;;;;;;;;;;;;;;6260993;22;19980;-85
2023/08/25 03:34:33;;;;;;;;;;;;;;;;;;6236600;22;20427;-85
2023/08/25 03:37:07;;;;;;;;;;;;;;;;;;6239150;22;19919;-85
2023/08/25 03:39:39;;;;;;;;;;;;;;;;;;6242470;22;19919;-85
2023/08/25 03:42:08;;;;;;;;;;;;;;;;;;6242208;22;20106;-85
2023/08/25 03:44:50;;;;;;;;;;;;;;;;;;6238878;22;19942;-85
2023/08/25 03:53:05;;;;;;;;;;;;;;;;;;6286561;22;19930;-85
2023/08/25 03:55:31;;;;;;;;;;;;;;;;;;6241425;22;19925;-85
2023/08/25 03:57:56;;;;;;;;;;;;;;;;;;6241633;22;20251;-86
2023/08/25 04:00:22;;;;;;;;;;;;;;;;;;6238592;22;19919;-85
2023/08/25 04:02:49;;;;;;;;;;;;;;;;;;6243484;22;19919;-85
2023/08/25 04:05:14;;;;;;;;;;;;;;;;;;6242314;22;20413;-85
2023/08/25 04:07:40;;;;;;;;;;;;;;;;;;6242365;22;19919;-86
2023/08/25 04:10:15;;;;;;;;;;;;;;;;;;6241690;22;20188;-85
2023/08/25 04:12:41;;;;;;;;;;;;;;;;;;6239480;22;19972;-85
2023/08/25 04:15:07;;;;;;;;;;;;;;;;;;6267479;22;19918;-85
2023/08/25 04:17:36;;;;;;;;;;;;;;;;;;6264270;22;20453;-85
2023/08/25 04:20:03;;;;;;;;;;;;;;;;;;6267817;22;19923;-86
2023/08/25 04:22:29;;;;;;;;;;;;;;;;;;6264778;22;19926;-85
2023/08/25 04:24:58;;;;;;;;;;;;;;;;;;6267558;22;19923;-87
2023/08/25 04:27:24;;;;;;;;;;;;;;;;;;6237459;22;19965;-87
2023/08/25 04:29:52;;;;;;;;;;;;;;;;;;6268266;22;19937;-86
2023/08/25 04:32:26;;;;;;;;;;;;;;;;;;6269506;22;20389;-87
2023/08/25 04:34:52;;;;;;;;;;;;;;;;;;6269932;22;20647;-87
2023/08/25 04:37:21;;;;;;;;;;;;;;;;;;6238910;22;19925;-86
2023/08/25 04:39:55;;;;;;;;;;;;;;;;;;6267127;22;20417;-86
2023/08/25 04:42:26;;;;;;;;;;;;;;;;;;6267392;22;19993;-87
2023/08/25 04:44:55;;;;;;;;;;;;;;;;;;6245365;22;19970;-86
2023/08/25 04:47:23;;;;;;;;;;;;;;;;;;6267263;22;19989;-87
2023/08/25 04:50:02;;;;;;;;;;;;;;;;;;6245021;22;19930;-87
2023/08/25 04:52:33;;;;;;;;;;;;;;;;;;6268526;22;19927;-87
2023/08/25 04:55:55;;;;;;;;;;;;;;;;;;;;;
2023/08/25 04:58:10;;;;;;;;;;;;;;;;;;6283846;22;20060;-87
2023/08/25 05:00:39;;;;;;;;;;;;;;;;;;6240155;22;19919;-87
2023/08/25 05:03:05;;;;;;;;;;;;;;;;;;6241566;22;19919;-87
2023/08/25 05:05:38;;;;;;;;;;;;;;;;;;6241236;22;19929;-87
2023/08/25 05:08:07;;;;;;;;;;;;;;;;;;6171127;23;20057;-87
2023/08/25 05:13:52;;;;;;;;;;;;;;;;;;6211435;23;19966;-87
2023/08/25 05:16:21;;;;;;;;;;;;;;;;;;6149144;23;19971;-87
2023/08/25 05:19:02;;;;;;;;;;;;;;;;;;6173922;23;19946;-87
2023/08/25 05:21:28;;;;;;;;;;;;;;;;;;6170859;23;19920;-87
2023/08/25 05:23:54;;;;;;;;;;;;;;;;;;6147066;23;19951;-87
2023/08/25 05:26:26;;;;;;;;;;;;;;;;;;6171442;23;19950;-87
2023/08/25 05:28:54;;;;;;;;;;;;;;;;;;6173056;23;19923;-87
2023/08/25 05:31:23;;;;;;;;;;;;;;;;;;6195395;23;20169;-87
2023/08/25 05:34:01;;;;;;;;;;;;;;;;;;6152886;23;19919;-87
2023/08/25 05:36:27;;;;;;;;;;;;;;;;;;6148874;23;19947;-87
2023/08/25 05:38:53;;;;;;;;;;;;;;;;;;6150809;23;19944;-87
2023/08/25 05:41:31;;;;;;;;;;;;;;;;;;6151554;23;19962;-87
2023/08/25 05:43:57;;;;;;;;;;;;;;;;;;6150940;23;20305;-87
2023/08/25 05:46:25;;;;;;;;;;;;;;;;;;6228872;22;20224;-88
2023/08/25 05:48:57;;;;;;;;;;;;;;;;;;6244500;22;19919;-87
2023/08/25 05:51:23;;;;;;;;;;;;;;;;;;6240518;22;20304;-87
2023/08/25 05:53:52;;;;;;;;;;;;;;;;;;6243925;22;19929;-88
2023/08/25 05:56:20;;;;;;;;;;;;;;;;;;6244340;22;19922;-88
2023/08/25 05:58:49;;;;;;;;;;;;;;;;;;6242624;22;20243;-87
2023/08/25 06:01:15;;;;;;;;;;;;;;;;;;6242857;22;20631;-87
2023/08/25 06:03:43;;;;;;;;;;;;;;;;;;6267146;22;20435;-87
2023/08/25 06:06:12;;;;;;;;;;;;;;;;;;6242444;22;20690;-87
2023/08/25 06:08:38;;;;;;;;;;;;;;;;;;6239919;22;20244;-87
2023/08/25 06:11:04;;;;;;;;;;;;;;;;;;6240464;22;19922;-87
2023/08/25 06:13:47;;;;;;;;;;;;;;;;;;;;;
2023/08/25 06:16:13;;;;;;;;;;;;;;;;;;6263300;22;19919;-88
2023/08/25 06:18:39;;;;;;;;;;;;;;;;;;6239297;22;20396;-87
2023/08/25 06:21:12;;;;;;;;;;;;;;;;;;6239154;22;20017;-87
2023/08/25 06:23:38;;;;;;;;;;;;;;;;;;6236685;22;19994;-87
2023/08/25 06:26:07;;;;;;;;;;;;;;;;;;6238321;22;20280;-87
2023/08/25 06:28:33;;;;;;;;;;;;;;;;;;6235765;22;20337;-87
2023/08/25 06:30:59;;;;;;;;;;;;;;;;;;6239089;22;20394;-88
2023/08/25 06:33:31;;;;;;;;;;;;;;;;;;6239439;22;19972;-88
2023/08/25 06:35:59;;;;;;;;;;;;;;;;;;6267115;22;20314;-88
2023/08/25 06:38:28;;;;;;;;;;;;;;;;;;6236981;22;19953;-88
2023/08/25 06:40:54;;;;;;;;;;;;;;;;;;6239647;22;19997;-87
2023/08/25 06:43:21;;;;;;;;;;;;;;;;;;6237443;22;19990;-88
2023/08/25 06:45:52;;;;;;;;;;;;;;;;;;6266976;22;19950;-88
2023/08/25 06:48:24;;;;;;;;;;;;;;;;;;6238945;22;19918;-88
2023/08/25 06:50:52;;;;;;;;;;;;;;;;;;6266787;22;19919;-88
2023/08/25 06:53:21;;;;;;;;;;;;;;;;;;6239191;22;19933;-87
2023/08/25 06:55:47;;;;;;;;;;;;;;;;;;6238414;22;19919;-87
2023/08/25 06:58:19;;;;;;;;;;;;;;;;;;6239411;22;19918;-87
2023/08/25 07:00:53;;;;;;;;;;;;;;;;;;6237262;22;19915;-88
2023/08/25 07:03:22;;;;;;;;;;;;;;;;;;6237933;22;19919;-88
2023/08/25 07:05:51;;;;;;;;;;;;;;;;;;6265627;22;20018;-88
2023/08/25 07:08:22;;;;;;;;;;;;;;;;;;6238483;22;20016;-87
2023/08/25 07:10:49;;;;;;;;;;;;;;;;;;6265661;22;19926;-87
2023/08/25 07:13:15;;;;;;;;;;;;;;;;;;6238212;22;19918;-88
2023/08/25 07:15:44;;;;;;;;;;;;;;;;;;6238532;22;20540;-87
2023/08/25 07:18:10;;;;;;;;;;;;;;;;;;6240004;22;19926;-87
2023/08/25 07:20:36;;;;;;;;;;;;;;;;;;6238617;22;19915;-88
2023/08/25 07:23:05;;;;;;;;;;;;;;;;;;6265718;22;20629;-88
2023/08/25 07:25:31;;;;;;;;;;;;;;;;;;6265282;22;19930;-87
2023/08/25 07:27:57;;;;;;;;;;;;;;;;;;6266212;22;19919;-88
2023/08/25 07:30:26;;;;;;;;;;;;;;;;;;6238582;22;19993;-90
2023/08/25 07:32:52;;;;;;;;;;;;;;;;;;6243011;22;19971;-89
2023/08/25 07:35:21;;;;;;;;;;;;;;;;;;6246776;22;19915;-89
2023/08/25 07:37:49;;;;;;;;;;;;;;;;;;6242917;22;19919;-88
2023/08/25 07:40:19;;;;;;;;;;;;;;;;;;6244233;22;19919;-90
2023/08/25 07:42:57;;;;;;;;;;;;;;;;;;6244712;22;20012;-89
2023/08/25 07:45:25;;;;;;;;;;;;;;;;;;6242370;22;19919;-89
2023/08/25 07:47:59;;;;;;;;;;;;;;;;;;6242340;22;19914;-89
2023/08/25 07:50:25;;;;;;;;;;;;;;;;;;6267145;22;19921;-89
2023/08/25 07:52:51;;;;;;;;;;;;;;;;;;6264531;22;19945;-89
2023/08/25 07:55:19;;;;;;;;;;;;;;;;;;6238661;22;19920;-88
2023/08/25 07:57:49;;;;;;;;;;;;;;;;;;6236477;22;19978;-88
2023/08/25 08:00:17;;;;;;;;;;;;;;;;;;6264672;22;20726;-89
2023/08/25 08:02:44;;;;;;;;;;;;;;;;;;6233936;22;19919;-89
2023/08/25 08:05:10;;;;;;;;;;;;;;;;;;6260780;22;19963;-88
2023/08/25 08:07:42;;;;;;;;;;;;;;;;;;6258207;22;19986;-89
2023/08/25 08:10:08;;;;;;;;;;;;;;;;;;6259770;22;19994;-88
2023/08/25 08:12:34;;;;;;;;;;;;;;;;;;6229733;22;19986;-88
2023/08/25 08:15:02;;;;;;;;;;;;;;;;;;6231643;22;20356;-88
2023/08/25 08:17:28;;;;;;;;;;;;;;;;;;6229315;22;19919;-88
2023/08/25 08:20:00;;;;;;;;;;;;;;;;;;6258697;22;19927;-89
2023/08/25 08:22:41;;;;;;;;;;;;;;;;;;6253372;22;19920;-89
2023/08/25 08:28:28;;;;;;;;;;;;;;;;;;6206713;23;19919;-89
2023/08/25 08:31:05;;;;;;;;;;;;;;;;;;6201305;23;20006;-89
2023/08/25 08:33:34;;;;;;;;;;;;;;;;;;6171750;23;19923;-89
2023/08/25 08:39:28;;;;;;;;;;;;;;;;;;6114254;23;20034;-89
2023/08/25 08:45:02;;;;;;;;;;;;;;;;;;6053702;23;20675;-90
2023/08/25 09:10:27;;;;;;;;;;;;;;;;;;6251571;22;19927;-84
2023/08/25 09:13:02;;;;;;;;;;;;;;;;;;6234565;22;20537;-84
2023/08/25 09:15:49;;;;;;;;;;;;;;;;;;6234098;22;19919;-85
2023/08/25 09:18:26;;;;;;;;;;;;;;;;;;;;;
2023/08/25 09:21:15;;;;;;;;;;;;;;;;;;;;;
2023/08/25 09:23:56;;;;;;;;;;;;;;;;;;6194212;23;20075;-88
2023/08/25 09:32:56;;;;;;;;;;;;;;;;;;;;;
2023/08/25 09:38:26;;;;;;;;;;;;;;;;;;6105496;23;19925;-88
2023/08/25 09:41:03;;;;;;;;;;;;;;;;;;6083010;23;20752;-88
2023/08/25 09:46:57;;;;;;;;;;;;;;;;;;6056538;23;19948;-89
2023/08/25 09:49:39;;;;;;;;;;;;;;;;;;6037233;23;20477;-89
2023/08/25 09:52:06;;;;;;;;;;;;;;;;;;6104805;23;19921;-88
2023/08/25 09:54:34;;;;;;;;;;;;;;;;;;6085496;23;19964;-88
2023/08/25 09:57:01;;;;;;;;;;;;;;;;;;6112866;23;19920;-90
2023/08/25 09:59:27;;;;;;;;;;;;;;;;;;6054011;23;19925;-91
2023/08/25 10:01:53;;;;;;;;;;;;;;;;;;6055257;23;19921;-91
2023/08/25 10:04:19;;;;;;;;;;;;;;;;;;6052216;23;20058;-92
2023/08/25 10:06:51;;;;;;;;;;;;;;;;;;6071796;23;19976;-92
2023/08/25 10:09:17;;;;;;;;;;;;;;;;;;6088912;23;19924;-92
2023/08/25 10:11:45;;;;;;;;;;;;;;;;;;6135581;23;19924;-91
2023/08/25 10:14:21;;;;;;;;;;;;;;;;;;6164195;23;19955;-92
2023/08/25 10:16:49;;;;;;;;;;;;;;;;;;6161353;23;19942;-92
2023/08/25 10:19:27;;;;;;;;;;;;;;;;;;6161321;23;19917;-91
2023/08/25 10:22:01;;;;;;;;;;;;;;;;;;6164239;23;19995;-92
2023/08/25 10:24:32;;;;;;;;;;;;;;;;;;6114182;23;19966;-92
2023/08/25 10:27:00;;;;;;;;;;;;;;;;;;6115283;23;19928;-92
2023/08/25 10:29:43;;;;;;;;;;;;;;;;;;;;;
2023/08/25 10:32:24;;;;;;;;;;;;;;;;;;6172764;23;19921;-89
2023/08/25 10:37:40;;;;;;;;;;;;;;;;;;6163035;23;19927;-93
2023/08/25 10:40:11;;;;;;;;;;;;;;;;;;6196423;23;20021;-92
2023/08/25 10:42:44;;;;;;;;;;;;;;;;;;6193605;23;20399;-91
2023/08/25 10:45:11;;;;;;;;;;;;;;;;;;6196575;23;20027;-91
2023/08/25 10:47:49;;;;;;;;;;;;;;;;;;;;;
2023/08/25 10:50:22;;;;;;;;;;;;;;;;;;6196275;23;19931;-91
2023/08/25 10:52:52;;;;;;;;;;;;;;;;;;6195742;23;19919;-92
2023/08/25 13:24:16;;;;;;;;;;;;;;;;;;6245463;22;19923;-80
2023/08/25 13:26:42;;;;;;;;;;;;;;;;;;6290435;22;20025;-80
2023/08/25 13:29:09;;;;;;;;;;;;;;;;;;6289020;22;20048;-82
2023/08/25 13:31:35;;;;;;;;;;;;;;;;;;6237884;22;19922;-81
2023/08/25 13:34:01;;;;;;;;;;;;;;;;;;6238900;22;19926;-83
2023/08/25 13:39:40;;;;;;;;;;;;;;;;;;6260970;22;19922;-86
2023/08/25 13:48:40;;;;;;;;;;;;;;;;;;;;;
2023/08/25 14:00:33;;;;;;;;;;;;;;;;;;6260841;22;19923;-89
2023/08/25 14:06:23;;;;;;;;;;;;;;;;;;6139445;23;19928;-91
2023/08/25 14:18:08;;;;;;;;;;;;;;;;;;;;;
2023/08/25 14:21:14;;;;;;;;;;;;;;;;;;;;;
2023/08/25 14:28:59;;;;;;;;;;;;;;;;;;6268171;22;20406;-84
2023/08/25 14:31:25;;;;;;;;;;;;;;;;;;6232245;22;19926;-87
2023/08/25 14:42:04;;;;;;;;;;;;;;;;;;6257187;22;19923;-84
2023/08/25 14:44:30;;;;;;;;;;;;;;;;;;6227553;22;20330;-84
2023/08/25 14:46:56;;;;;;;;;;;;;;;;;;6208184;22;20258;-84
2023/08/25 14:49:22;;;;;;;;;;;;;;;;;;6207507;22;19919;-84
2023/08/25 14:51:48;;;;;;;;;;;;;;;;;;6210435;22;19947;-84
2023/08/25 14:54:14;;;;;;;;;;;;;;;;;;6233872;22;19923;-83
2023/08/25 14:56:40;;;;;;;;;;;;;;;;;;6208750;22;20390;-84
2023/08/25 14:59:07;;;;;;;;;;;;;;;;;;6236007;22;20340;-84
2023/08/25 15:01:33;;;;;;;;;;;;;;;;;;6234784;22;19994;-83
2023/08/25 15:03:59;;;;;;;;;;;;;;;;;;6233128;22;19972;-83
2023/08/25 15:06:25;;;;;;;;;;;;;;;;;;6205943;22;19927;-83
2023/08/25 15:08:51;;;;;;;;;;;;;;;;;;6210532;22;19919;-83
2023/08/25 15:11:17;;;;;;;;;;;;;;;;;;6210555;22;19962;-84
2023/08/25 15:13:43;;;;;;;;;;;;;;;;;;6229882;22;19923;-83
2023/08/25 15:16:09;;;;;;;;;;;;;;;;;;6233519;22;19926;-84
2023/08/25 15:18:35;;;;;;;;;;;;;;;;;;6204518;22;20369;-85
2023/08/25 15:21:04;;;;;;;;;;;;;;;;;;6207742;22;20387;-84
2023/08/25 15:23:32;;;;;;;;;;;;;;;;;;6203767;22;20359;-85
2023/08/25 15:25:58;;;;;;;;;;;;;;;;;;6232828;22;20341;-85
2023/08/25 15:28:28;;;;;;;;;;;;;;;;;;6206242;22;19919;-85
2023/08/25 15:30:54;;;;;;;;;;;;;;;;;;6208263;22;19934;-84
2023/08/25 15:33:20;;;;;;;;;;;;;;;;;;6206106;22;19927;-83
2023/08/25 15:35:46;;;;;;;;;;;;;;;;;;6206602;22;19998;-84
2023/08/25 15:38:12;;;;;;;;;;;;;;;;;;6206656;22;19990;-83
2023/08/25 15:40:39;;;;;;;;;;;;;;;;;;6230002;22;20245;-83
2023/08/25 15:43:05;;;;;;;;;;;;;;;;;;6232991;22;20014;-83
2023/08/25 15:45:31;;;;;;;;;;;;;;;;;;6204938;22;20002;-82
2023/08/25 15:47:57;;;;;;;;;;;;;;;;;;6231070;22;19941;-81
2023/08/25 15:50:23;;;;;;;;;;;;;;;;;;6230989;22;19976;-81
2023/08/25 15:52:49;;;;;;;;;;;;;;;;;;6259066;22;20230;-81
2023/08/25 15:55:15;;;;;;;;;;;;;;;;;;6207500;22;19918;-81
2023/08/25 15:57:41;;;;;;;;;;;;;;;;;;6230082;22;19926;-81
2023/08/25 16:00:08;;;;;;;;;;;;;;;;;;6230954;22;20323;-81
2023/08/25 16:02:34;;;;;;;;;;;;;;;;;;6228417;22;20352;-81
2023/08/25 16:05:00;;;;;;;;;;;;;;;;;;6231366;22;20311;-82
2023/08/25 16:07:26;;;;;;;;;;;;;;;;;;6203257;22;19958;-81
2023/08/25 16:09:52;;;;;;;;;;;;;;;;;;6206534;22;19982;-82
2023/08/25 16:12:18;;;;;;;;;;;;;;;;;;6230966;22;19941;-82
2023/08/25 16:14:44;;;;;;;;;;;;;;;;;;6229611;22;20393;-84
2023/08/25 16:17:11;;;;;;;;;;;;;;;;;;6206564;22;19986;-82
2023/08/25 16:19:37;;;;;;;;;;;;;;;;;;6229862;22;19926;-82
2023/08/25 16:22:03;;;;;;;;;;;;;;;;;;6233330;22;20423;-82
2023/08/25 16:24:29;;;;;;;;;;;;;;;;;;6206688;22;20362;-82
2023/08/25 16:26:55;;;;;;;;;;;;;;;;;;6234448;22;19927;-82
2023/08/25 16:29:21;;;;;;;;;;;;;;;;;;6230365;22;19926;-82
2023/08/25 16:31:47;;;;;;;;;;;;;;;;;;6231377;22;19919;-82
2023/08/25 16:34:14;;;;;;;;;;;;;;;;;;6232658;22;19919;-82
2023/08/25 16:36:39;;;;;;;;;;;;;;;;;;6226702;22;20346;-82
2023/08/25 16:39:05;;;;;;;;;;;;;;;;;;6207978;22;20368;-82
2023/08/25 16:41:31;;;;;;;;;;;;;;;;;;6232482;22;19923;-82
2023/08/25 16:43:57;;;;;;;;;;;;;;;;;;6232060;22;19968;-82
2023/08/25 16:46:23;;;;;;;;;;;;;;;;;;6230182;22;20367;-82
2023/08/25 16:48:50;;;;;;;;;;;;;;;;;;6232513;22;19958;-83
2023/08/25 16:51:26;;;;;;;;;;;;;;;;;;;;;
2023/08/25 16:56:50;;;;;;;;;;;;;;;;;;6262867;22;19919;-83
2023/08/25 16:59:16;;;;;;;;;;;;;;;;;;6235174;22;19963;-82
2023/08/25 17:01:42;;;;;;;;;;;;;;;;;;6230388;22;19926;-81
2023/08/25 17:04:08;;;;;;;;;;;;;;;;;;6210636;22;20248;-82
2023/08/25 17:06:34;;;;;;;;;;;;;;;;;;6231294;22;19923;-82
2023/08/25 17:09:01;;;;;;;;;;;;;;;;;;6233051;22;19968;-82
2023/08/25 17:11:27;;;;;;;;;;;;;;;;;;6231999;22;20217;-82
2023/08/25 17:13:53;;;;;;;;;;;;;;;;;;6208953;22;19923;-82
2023/08/25 17:16:20;;;;;;;;;;;;;;;;;;6209960;22;20017;-82
2023/08/25 17:18:46;;;;;;;;;;;;;;;;;;6211980;22;20257;-82
2023/08/25 17:21:12;;;;;;;;;;;;;;;;;;6264935;22;20387;-82
2023/08/25 17:23:38;;;;;;;;;;;;;;;;;;6262960;22;19915;-82
2023/08/25 17:26:04;;;;;;;;;;;;;;;;;;6234916;22;19923;-82
2023/08/25 17:28:31;;;;;;;;;;;;;;;;;;6233517;22;20411;-82
2023/08/25 17:30:57;;;;;;;;;;;;;;;;;;6262379;22;20347;-83
2023/08/25 17:33:23;;;;;;;;;;;;;;;;;;6208042;22;19924;-82
2023/08/25 17:35:49;;;;;;;;;;;;;;;;;;6263354;22;19919;-83
2023/08/25 17:38:15;;;;;;;;;;;;;;;;;;6234469;22;19919;-83
2023/08/25 17:40:41;;;;;;;;;;;;;;;;;;6202131;23;19929;-83
2023/08/25 17:43:09;;;;;;;;;;;;;;;;;;6229948;23;20354;-83
2023/08/25 17:45:35;;;;;;;;;;;;;;;;;;6202452;23;19924;-82
2023/08/25 17:50:37;;;;;;;;;;;;;;;;;;6170668;22;20294;-82
2023/08/25 17:53:06;;;;;;;;;;;;;;;;;;6228062;22;19928;-87
2023/08/25 17:55:46;;;;;;;;;;;;;;;;;;6205647;23;19969;-87
2023/08/25 17:58:25;;;;;;;;;;;;;;;;;;6231842;23;19919;-87
2023/08/25 18:01:05;;;;;;;;;;;;;;;;;;6207268;23;19926;-87
2023/08/25 18:03:39;;;;;;;;;;;;;;;;;;6204379;23;19961;-86
2023/08/25 18:06:17;;;;;;;;;;;;;;;;;;6205761;23;19931;-87
2023/08/25 18:09:08;;;;;;;;;;;;;;;;;;6230369;23;19919;-87
2023/08/25 18:11:43;;;;;;;;;;;;;;;;;;6204857;23;20426;-86
2023/08/25 18:14:11;;;;;;;;;;;;;;;;;;6201681;23;20612;-87
2023/08/25 18:17:13;;;;;;;;;;;;;;;;;;6187910;22;20530;-86
2023/08/25 18:20:02;;;;;;;;;;;;;;;;;;6208004;23;20004;-86
2023/08/25 18:22:41;;;;;;;;;;;;;;;;;;;;;
2023/08/25 18:25:32;;;;;;;;;;;;;;;;;;;;;
2023/08/25 18:43:48;;;;;;;;;;;;;;;;;;5817526;24;19932;-86
2023/08/25 18:46:27;;;;;;;;;;;;;;;;;;5934531;23;19990;-87
2023/08/25 18:49:16;;;;;;;;;;;;;;;;;;5935570;24;19919;-87
2023/08/25 18:54:22;;;;;;;;;;;;;;;;;;6264347;22;20340;-87
2023/08/25 18:57:04;;;;;;;;;;;;;;;;;;6213522;22;19934;-87
2023/08/25 19:00:01;;;;;;;;;;;;;;;;;;6233520;22;19986;-88
2023/08/25 19:02:46;;;;;;;;;;;;;;;;;;;;;
2023/08/25 19:08:08;;;;;;;;;;;;;;;;;;6170557;22;19919;-86
2023/08/25 19:10:40;;;;;;;;;;;;;;;;;;6213292;22;19919;-86
2023/08/25 19:13:06;;;;;;;;;;;;;;;;;;6213738;22;19919;-87
2023/08/25 19:15:32;;;;;;;;;;;;;;;;;;6211636;22;19923;-86
2023/08/25 19:18:00;;;;;;;;;;;;;;;;;;6239741;22;20255;-86
2023/08/25 19:20:32;;;;;;;;;;;;;;;;;;6210165;22;19985;-87
2023/08/25 19:23:15;;;;;;;;;;;;;;;;;;6176843;23;19966;-87
2023/08/25 19:25:58;;;;;;;;;;;;;;;;;;6180760;23;19927;-88
2023/08/25 19:28:53;;;;;;;;;;;;;;;;;;6178695;23;19967;-89
2023/08/25 19:31:22;;;;;;;;;;;;;;;;;;6123342;23;20265;-88
2023/08/25 19:33:48;;;;;;;;;;;;;;;;;;6146025;23;19923;-89
2023/08/25 19:36:14;;;;;;;;;;;;;;;;;;6146738;23;19920;-88
2023/08/25 19:38:40;;;;;;;;;;;;;;;;;;6141634;23;19991;-88
2023/08/25 19:41:07;;;;;;;;;;;;;;;;;;6147039;23;19920;-86
2023/08/25 19:43:35;;;;;;;;;;;;;;;;;;6145258;23;19927;-87
2023/08/25 19:52:08;;;;;;;;;;;;;;;;;;6156797;23;19927;-86
2023/08/25 19:57:38;;;;;;;;;;;;;;;;;;6273946;22;19923;-86
2023/08/25 20:00:06;;;;;;;;;;;;;;;;;;6242904;22;19926;-87
2023/08/25 20:02:35;;;;;;;;;;;;;;;;;;6267485;22;20340;-87
2023/08/25 20:05:01;;;;;;;;;;;;;;;;;;6268045;22;19919;-86
2023/08/25 20:07:27;;;;;;;;;;;;;;;;;;6241272;22;19922;-86
2023/08/25 20:09:56;;;;;;;;;;;;;;;;;;6242720;22;20309;-87
2023/08/25 20:12:29;;;;;;;;;;;;;;;;;;6266215;22;19973;-86
2023/08/25 20:15:01;;;;;;;;;;;;;;;;;;6241618;22;19926;-86
2023/08/25 20:17:27;;;;;;;;;;;;;;;;;;6266633;22;19919;-86
2023/08/25 20:19:53;;;;;;;;;;;;;;;;;;6241823;22;19922;-86
2023/08/25 20:22:22;;;;;;;;;;;;;;;;;;6268092;22;19992;-86
2023/08/25 20:24:48;;;;;;;;;;;;;;;;;;6242955;22;20432;-86
2023/08/25 20:27:14;;;;;;;;;;;;;;;;;;6268139;22;19919;-87
2023/08/25 20:29:41;;;;;;;;;;;;;;;;;;6239754;22;19919;-89
2023/08/25 20:32:07;;;;;;;;;;;;;;;;;;6243568;22;20220;-87
2023/08/25 20:37:42;;;;;;;;;;;;;;;;;;6186147;22;19926;-86
2023/08/25 20:40:08;;;;;;;;;;;;;;;;;;6268272;22;20308;-86
2023/08/25 20:42:35;;;;;;;;;;;;;;;;;;6266791;22;19925;-86
2023/08/25 20:45:01;;;;;;;;;;;;;;;;;;6242016;22;19990;-86
2023/08/25 20:47:30;;;;;;;;;;;;;;;;;;6238424;22;19930;-86
2023/08/25 20:49:59;;;;;;;;;;;;;;;;;;6242987;22;19915;-86
2023/08/25 20:52:27;;;;;;;;;;;;;;;;;;6243217;22;19915;-86
2023/08/25 20:54:53;;;;;;;;;;;;;;;;;;6270462;22;20152;-86
2023/08/25 20:57:31;;;;;;;;;;;;;;;;;;6269101;22;20023;-88
2023/08/25 21:00:17;;;;;;;;;;;;;;;;;;6273714;22;19941;-87
2023/08/25 21:03:12;;;;;;;;;;;;;;;;;;6297429;22;19918;-88
2023/08/25 21:05:46;;;;;;;;;;;;;;;;;;6269279;22;19945;-88
2023/08/25 21:08:14;;;;;;;;;;;;;;;;;;6176916;23;20245;-88
2023/08/25 21:10:40;;;;;;;;;;;;;;;;;;6151232;23;19920;-88
2023/08/25 21:13:12;;;;;;;;;;;;;;;;;;6178910;23;19926;-88
2023/08/25 21:15:49;;;;;;;;;;;;;;;;;;6151198;23;19930;-88
2023/08/25 21:18:45;;;;;;;;;;;;;;;;;;6135381;23;19916;-87
2023/08/25 21:24:22;;;;;;;;;;;;;;;;;;6202137;23;19927;-88
2023/08/25 21:26:53;;;;;;;;;;;;;;;;;;6176503;23;19924;-87
2023/08/25 21:29:25;;;;;;;;;;;;;;;;;;6151161;23;19920;-87
2023/08/25 21:31:53;;;;;;;;;;;;;;;;;;6153852;23;19920;-87
2023/08/25 21:34:25;;;;;;;;;;;;;;;;;;6151001;23;19931;-87
2023/08/25 21:36:53;;;;;;;;;;;;;;;;;;6150878;23;20341;-87
2023/08/25 21:39:35;;;;;;;;;;;;;;;;;;6239698;22;19915;-86
2023/08/25 21:42:04;;;;;;;;;;;;;;;;;;6270955;22;19919;-87
2023/08/25 21:44:46;;;;;;;;;;;;;;;;;;6242273;22;20421;-87
2023/08/25 21:47:25;;;;;;;;;;;;;;;;;;;;;
2023/08/25 21:49:57;;;;;;;;;;;;;;;;;;6270094;22;19926;-87
2023/08/25 21:52:32;;;;;;;;;;;;;;;;;;6268437;22;19919;-89
2023/08/25 21:55:04;;;;;;;;;;;;;;;;;;6245084;22;19918;-88
2023/08/25 21:57:35;;;;;;;;;;;;;;;;;;6235431;22;20010;-88
2023/08/25 22:00:19;;;;;;;;;;;;;;;;;;6239420;22;19923;-88
2023/08/25 22:03:08;;;;;;;;;;;;;;;;;;6265176;22;20100;-88
2023/08/25 22:05:57;;;;;;;;;;;;;;;;;;6238358;22;19923;-88
2023/08/25 22:08:41;;;;;;;;;;;;;;;;;;6239706;22;19926;-88
2023/08/25 22:11:25;;;;;;;;;;;;;;;;;;6264892;22;20281;-88
2023/08/25 22:14:02;;;;;;;;;;;;;;;;;;6238055;22;19945;-88
2023/08/25 22:16:33;;;;;;;;;;;;;;;;;;6262922;22;19926;-88
2023/08/25 22:19:05;;;;;;;;;;;;;;;;;;6264343;22;20774;-89
2023/08/25 22:21:40;;;;;;;;;;;;;;;;;;6237788;22;20252;-88